Sentaimaru — JD2823 — position and weather

sailwx.info

Track history (hours):
 
Tides and Currents Weather Stations Pressure Air Temp Water Temp Dewpoint Dewpoint Depression Visibility Wind Speed Wind Dir Waves Ship Positions

Sentaimaru

Last reported at 2017-Nov-17 09:35 UTC. Time now 2017-Nov-21 15:44 UTC.
Position N 34°38' E 134°59'.

Length 60 m; draft 4.2 m.

Type: Tanker. MMSI: 431000781.

Date/timePositionNaut miles runAvg speedWind from/ knotsBaromVisibWave heightAir tempDewpointWater temp
2017-Nov-17 09:35N 34°38' E 134°59'114.3
2017-Nov-17 09:30N 34°37' E 135°01'611.9
2017-Nov-17 09:01N 34°35' E 135°08'611.5
2017-Nov-17 08:31N 34°35' E 135°15'611.3
2017-Nov-17 08:00N 34°34' E 135°21'4 0.5
2017-Nov-17 00:15N 34°32' E 135°25'0 0.0
2017-Nov-16 23:09N 34°32' E 135°25'0 0.0
2017-Nov-16 23:00N 34°32' E 135°25'2 2.9
2017-Nov-16 22:29N 34°33' E 135°24'2 0.1
2017-Nov-16 07:51N 34°31' E 135°24'1 0.2
2017-Nov-16 04:54N 34°31' E 135°25'6 9.2
2017-Nov-16 04:19N 34°33' E 135°18'412.2
2017-Nov-16 04:00N 34°34' E 135°14'712.7
2017-Nov-16 03:28N 34°35' E 135°06'  
Track history (hours):
 
Tides and Currents Weather Stations Pressure Air Temp Water Temp Dewpoint Dewpoint Depression Visibility Wind Speed Wind Dir Waves Ship Positions

Sentaimaru

Last reported at 2017-Nov-17 09:35 UTC. Time now 2017-Nov-21 15:44 UTC.
Position N 34°38' E 134°59'.

Length 60 m; draft 4.2 m.

Type: Tanker. MMSI: 431000781.

Date/timePositionNaut miles runAvg speedWind from/ knotsBaromVisibWave heightAir tempDewpointWater temp
2017-Nov-17 09:35N 34°38' E 134°59'114.3
2017-Nov-17 09:30N 34°37' E 135°01'611.9
2017-Nov-17 09:01N 34°35' E 135°08'611.5
2017-Nov-17 08:31N 34°35' E 135°15'611.3
2017-Nov-17 08:00N 34°34' E 135°21'4 0.5
2017-Nov-17 00:15N 34°32' E 135°25'0 0.0
2017-Nov-16 23:09N 34°32' E 135°25'0 0.0
2017-Nov-16 23:00N 34°32' E 135°25'2 2.9
2017-Nov-16 22:29N 34°33' E 135°24'2 0.1
2017-Nov-16 07:51N 34°31' E 135°24'1 0.2
2017-Nov-16 04:54N 34°31' E 135°25'6 9.2
2017-Nov-16 04:19N 34°33' E 135°18'412.2
2017-Nov-16 04:00N 34°34' E 135°14'712.7
2017-Nov-16 03:28N 34°35' E 135°06'  

Dump ship's entire track history